Time;durP1;ratioP1;P1;durP2;ratioP2;P2;SDS_P1;SDS_P2;PMS_P1;PMS_P2;Temp;Humidity;BMP_temperature;BMP_pressure;BME280_temperature;BME280_humidity;BME280_pressure;Samples;Min_cycle;Max_cycle;Signal;HPM_P1;HPM_P2
2021/12/28 00:02:06;;;;;;;59.95;26.40;;;;;;;-10.17;70.11;100381.63;5077231;28;20518;-52
2021/12/28 00:04:32;;;;;;;64.72;26.05;;;;;;;-10.08;69.65;100383.84;5077158;28;20089;-51
2021/12/28 00:06:57;;;;;;;56.17;24.30;;;;;;;-10.10;69.70;100380.31;5078118;28;20029;-51
2021/12/28 00:09:23;;;;;;;69.07;27.98;;;;;;;-10.05;69.86;100385.66;5076885;28;20033;-52
2021/12/28 00:11:48;;;;;;;59.15;25.55;;;;;;;-10.08;70.16;100388.91;5075859;28;20357;-53
2021/12/28 00:14:14;;;;;;;60.15;24.27;;;;;;;-10.06;69.93;100384.78;5080135;28;20040;-52
2021/12/28 00:19:27;;;;;;;51.35;21.77;;;;;;;-10.10;70.28;100372.69;5049405;28;20070;-55
2021/12/28 00:21:52;;;;;;;59.15;25.20;;;;;;;-10.11;70.42;100380.22;5085533;28;20085;-52
2021/12/28 00:24:18;;;;;;;53.75;23.60;;;;;;;-10.07;70.26;100380.50;5076622;28;20056;-52
2021/12/28 00:26:43;;;;;;;42.53;17.58;;;;;;;-10.03;70.47;100373.94;5076663;28;20384;-52
2021/12/28 00:29:09;;;;;;;59.80;24.83;;;;;;;-9.99;70.52;100384.38;5086063;28;20032;-50
2021/12/28 00:31:35;;;;;;;53.47;22.48;;;;;;;-9.96;70.69;100379.50;5082190;28;20476;-53
2021/12/28 00:34:00;;;;;;;49.13;22.08;;;;;;;-9.91;70.44;100384.84;5076376;28;20052;-51
2021/12/28 00:36:26;;;;;;;48.75;19.98;;;;;;;-9.94;70.40;100384.66;5076289;28;20070;-51
2021/12/28 00:38:51;;;;;;;50.85;21.05;;;;;;;-9.96;70.56;100378.63;5076482;28;20127;-54
2021/12/28 00:41:17;;;;;;;38.80;16.58;;;;;;;-9.90;70.38;100378.97;5076454;28;20036;-52
2021/12/28 00:43:42;;;;;;;44.03;16.90;;;;;;;-9.89;70.85;100387.47;5076872;28;20032;-52
2021/12/28 00:46:09;;;;;;;42.03;18.08;;;;;;;-9.95;70.83;100377.81;5075118;28;20039;-51
2021/12/28 00:48:34;;;;;;;45.00;20.13;;;;;;;-9.95;70.83;100375.28;5074944;28;20033;-52
2021/12/28 00:51:00;;;;;;;44.85;20.38;;;;;;;-9.92;70.81;100375.47;5077209;28;20036;-52
2021/12/28 00:53:26;;;;;;;46.22;20.73;;;;;;;-9.94;71.21;100374.47;5075920;28;20090;-51
2021/12/28 00:55:52;;;;;;;49.50;20.05;;;;;;;-9.94;71.17;100382.09;5076157;28;20101;-52
2021/12/28 00:58:18;;;;;;;42.92;18.75;;;;;;;-9.97;71.56;100375.19;5084379;28;20032;-51
2021/12/28 01:00:44;;;;;;;54.63;22.13;;;;;;;-9.98;70.99;100375.97;5091500;28;20043;-52
2021/12/28 01:03:10;;;;;;;43.88;19.77;;;;;;;-10.02;71.65;100371.47;5095778;28;20032;-54
2021/12/28 01:05:37;;;;;;;36.40;15.80;;;;;;;-9.96;71.85;100373.53;5076427;28;20467;-52
2021/12/28 01:08:04;;;;;;;46.97;19.25;;;;;;;-9.94;71.67;100364.31;5075686;28;20029;-51
2021/12/28 01:10:36;;;;;;;39.25;18.35;;;;;;;-9.91;71.43;100367.03;5076334;28;20068;-54
2021/12/28 01:13:02;;;;;;;47.97;18.07;;;;;;;-9.89;71.46;100365.50;5095915;28;20489;-53
2021/12/28 01:15:28;;;;;;;37.80;17.15;;;;;;;-9.82;71.63;100352.31;5075406;28;20484;-52
2021/12/28 01:17:55;;;;;;;38.22;15.07;;;;;;;-9.74;71.61;100340.94;5082026;28;20040;-54
2021/12/28 01:20:21;;;;;;;37.22;15.10;;;;;;;-9.69;71.51;100333.59;5090864;28;20035;-52
2021/12/28 01:22:47;;;;;;;37.83;14.93;;;;;;;-9.61;71.11;100331.47;5079651;28;20036;-53
2021/12/28 01:25:15;;;;;;;37.15;15.35;;;;;;;-9.65;71.04;100325.34;5075654;28;20032;-52
2021/12/28 01:27:41;;;;;;;35.28;15.15;;;;;;;-9.59;71.17;100324.81;5076879;28;20494;-51
2021/12/28 01:30:08;;;;;;;33.38;14.90;;;;;;;-9.58;70.67;100316.38;5089771;28;20052;-53
2021/12/28 01:32:34;;;;;;;34.40;16.02;;;;;;;-9.54;70.49;100313.22;5085593;28;20059;-51
2021/12/28 01:35:00;;;;;;;35.95;15.30;;;;;;;-9.51;70.25;100303.25;5094607;28;20051;-53
2021/12/28 01:37:25;;;;;;;30.23;13.82;;;;;;;-9.50;70.41;100307.53;5095282;28;20123;-51
2021/12/28 01:39:51;;;;;;;34.50;14.35;;;;;;;-9.58;70.21;100303.66;5094327;28;20533;-51
2021/12/28 01:42:16;;;;;;;37.85;16.42;;;;;;;-9.62;70.13;100304.28;5095019;28;20035;-51
2021/12/28 01:44:41;;;;;;;31.20;13.05;;;;;;;-9.57;70.10;100301.25;5088844;28;20429;-55
2021/12/28 01:47:07;;;;;;;32.47;14.65;;;;;;;-9.60;70.23;100292.56;5095330;28;20119;-51
2021/12/28 01:49:32;;;;;;;40.67;16.23;;;;;;;-9.67;70.34;100292.19;5094058;28;20047;-55
2021/12/28 01:51:58;;;;;;;33.55;13.93;;;;;;;-9.70;70.08;100286.91;5093836;28;20067;-53
2021/12/28 01:54:24;;;;;;;41.33;16.00;;;;;;;-9.68;70.59;100277.72;5094642;28;20032;-52
2021/12/28 01:56:50;;;;;;;34.80;12.98;;;;;;;-9.64;70.56;100270.28;5094843;28;20040;-52
2021/12/28 01:59:19;;;;;;;36.15;15.23;;;;;;;-9.63;69.98;100267.81;5094937;28;20388;-51
2021/12/28 02:01:46;;;;;;;40.58;16.27;;;;;;;-9.56;70.58;100276.66;5093267;28;20497;-52
2021/12/28 02:04:23;;;;;;;35.70;13.45;;;;;;;-9.58;70.30;100266.38;5088476;28;20028;-51
2021/12/28 02:06:50;;;;;;;34.13;12.70;;;;;;;-9.55;70.52;100261.47;5074937;28;20033;-53
2021/12/28 02:09:16;;;;;;;29.80;13.43;;;;;;;-9.53;70.34;100259.91;5079928;28;20057;-52
2021/12/28 02:11:42;;;;;;;34.20;14.68;;;;;;;-9.52;70.09;100265.88;5090440;28;20031;-51
2021/12/28 02:14:09;;;;;;;32.28;13.55;;;;;;;-9.56;70.27;100261.41;5092609;28;20067;-52
2021/12/28 02:16:36;;;;;;;26.80;11.32;;;;;;;-9.55;70.07;100263.16;5092456;28;20047;-51
2021/12/28 02:19:03;;;;;;;32.15;14.40;;;;;;;-9.57;70.78;100263.09;5089430;28;20387;-53
2021/12/28 02:21:31;;;;;;;31.85;14.90;;;;;;;-9.51;70.52;100254.91;5078271;28;20045;-57
2021/12/28 02:23:58;;;;;;;30.60;12.73;;;;;;;-9.51;70.82;100270.16;5094453;28;20428;-54
2021/12/28 02:26:24;;;;;;;34.45;13.80;;;;;;;-9.51;70.29;100265.94;5094631;28;20032;-52
2021/12/28 02:28:49;;;;;;;31.98;13.48;;;;;;;-9.54;70.46;100260.69;5088196;28;20574;-52
2021/12/28 02:31:14;;;;;;;29.67;12.70;;;;;;;-9.56;70.76;100271.59;5087939;28;20100;-52
2021/12/28 02:33:40;;;;;;;23.50;10.65;;;;;;;-9.51;70.95;100278.66;5089678;28;20468;-52
2021/12/28 02:36:06;;;;;;;32.45;12.85;;;;;;;-9.47;70.78;100274.63;5094881;28;20089;-54
2021/12/28 02:38:33;;;;;;;33.58;14.35;;;;;;;-9.47;70.30;100267.88;5093878;28;20044;-52
2021/12/28 02:40:59;;;;;;;34.83;14.55;;;;;;;-9.49;70.60;100269.47;5094158;28;20040;-52
2021/12/28 02:43:26;;;;;;;28.65;13.32;;;;;;;-9.37;70.95;100261.66;5092159;28;20550;-54
2021/12/28 02:45:55;;;;;;;30.10;14.68;;;;;;;-9.27;70.56;100247.75;5093089;28;20044;-54
2021/12/28 02:48:22;;;;;;;33.88;13.40;;;;;;;-9.11;70.53;100254.56;5090424;28;20218;-55
2021/12/28 02:50:50;;;;;;;28.38;12.43;;;;;;;-8.96;70.55;100255.41;5094224;28;20039;-53
2021/12/28 02:53:19;;;;;;;29.70;12.75;;;;;;;-8.70;70.04;100251.69;5091372;28;20032;-53
2021/12/28 02:55:46;;;;;;;31.65;13.27;;;;;;;-8.36;69.52;100246.66;5078067;28;20364;-50
2021/12/28 02:58:23;;;;;;;22.70;9.63;;;;;;;-8.09;69.17;100242.09;5074813;28;20047;-52
2021/12/28 03:00:55;;;;;;;39.35;14.07;;;;;;;-7.78;68.26;100249.59;5073781;28;20032;-54
2021/12/28 03:03:27;;;;;;;31.85;11.32;;;;;;;-7.64;67.12;100251.94;5074366;28;20077;-52
2021/12/28 03:05:55;;;;;;;27.77;9.95;;;;;;;-7.50;67.22;100245.81;5093765;28;20506;-54
2021/12/28 03:08:25;;;;;;;31.15;11.82;;;;;;;-7.37;66.90;100247.28;5093853;28;20505;-53
2021/12/28 03:10:51;;;;;;;27.50;10.68;;;;;;;-7.37;66.71;100232.84;5078795;28;20055;-51
2021/12/28 03:13:21;;;;;;;21.35;8.98;;;;;;;-7.37;66.44;100227.75;5074651;28;20082;-53
2021/12/28 03:15:47;;;;;;;23.75;10.45;;;;;;;-7.32;66.44;100230.50;5080734;28;20032;-52
2021/12/28 03:18:12;;;;;;;22.85;9.95;;;;;;;-7.25;66.25;100220.66;5093837;28;20031;-52
2021/12/28 03:20:38;;;;;;;26.73;11.98;;;;;;;-7.17;65.57;100215.03;5088697;28;20040;-53
2021/12/28 03:23:04;;;;;;;25.10;11.00;;;;;;;-7.08;65.63;100216.31;5091539;28;20394;-54
2021/12/28 03:25:30;;;;;;;22.75;10.73;;;;;;;-7.05;65.55;100210.50;5093070;28;20417;-52
2021/12/28 03:27:55;;;;;;;25.63;10.75;;;;;;;-6.96;65.28;100206.66;5092517;28;20036;-55
2021/12/28 03:30:22;;;;;;;26.15;10.93;;;;;;;-6.87;65.32;100205.34;5073222;28;20411;-54
2021/12/28 03:32:47;;;;;;;26.40;11.25;;;;;;;-6.92;65.53;100200.03;5077544;28;20052;-53
2021/12/28 03:35:15;;;;;;;22.52;10.25;;;;;;;-6.80;65.34;100200.56;5080350;28;20078;-52
2021/12/28 03:37:41;;;;;;;20.98;8.82;;;;;;;-6.79;66.04;100202.31;5073336;28;20028;-52
2021/12/28 03:40:09;;;;;;;22.90;9.93;;;;;;;-6.67;65.75;100198.56;5083691;28;20033;-55
2021/12/28 03:42:35;;;;;;;22.17;10.20;;;;;;;-6.59;65.08;100199.78;5073158;28;20127;-52
2021/12/28 03:45:02;;;;;;;24.35;11.07;;;;;;;-6.49;65.21;100202.81;5085975;28;20050;-52
2021/12/28 03:47:27;;;;;;;23.83;10.15;;;;;;;-6.42;65.15;100197.94;5093519;28;20040;-54
2021/12/28 03:49:53;;;;;;;22.77;10.38;;;;;;;-6.40;64.84;100194.66;5092932;28;20036;-51
2021/12/28 03:52:18;;;;;;;18.70;8.57;;;;;;;-6.36;64.80;100193.97;5093370;28;20024;-52
2021/12/28 03:54:44;;;;;;;18.95;8.45;;;;;;;-6.30;64.91;100189.13;5089127;28;20040;-55
2021/12/28 03:57:09;;;;;;;21.95;9.93;;;;;;;-6.30;64.98;100181.47;5073481;28;20037;-52
2021/12/28 03:59:35;;;;;;;26.10;11.32;;;;;;;-6.33;64.79;100173.66;5074420;28;20396;-52
2021/12/28 04:02:00;;;;;;;25.35;12.38;;;;;;;-6.29;65.25;100161.88;5086135;28;20047;-52
2021/12/28 04:04:26;;;;;;;19.85;10.05;;;;;;;-6.25;65.51;100173.97;5092601;28;20209;-53
2021/12/28 04:06:51;;;;;;;19.27;9.20;;;;;;;-6.22;65.19;100169.88;5089609;28;20133;-51
2021/12/28 04:09:34;;;;;;;25.73;11.18;;;;;;;-6.13;65.08;100169.38;5092001;28;20032;-51
2021/12/28 04:11:59;;;;;;;20.80;9.43;;;;;;;-6.08;64.94;100162.75;5092590;28;20036;-51
2021/12/28 04:14:25;;;;;;;25.02;10.98;;;;;;;-6.04;65.04;100168.88;5093349;28;20038;-52
2021/12/28 04:16:50;;;;;;;25.33;10.20;;;;;;;-5.99;65.21;100177.59;5093363;28;20036;-55
2021/12/28 04:19:15;;;;;;;20.50;9.68;;;;;;;-6.04;65.33;100174.00;5091492;28;20169;-52
2021/12/28 04:21:41;;;;;;;18.23;8.90;;;;;;;-5.99;65.21;100167.38;5082624;28;20055;-52
2021/12/28 04:24:06;;;;;;;17.63;7.72;;;;;;;-5.91;65.08;100163.41;5091964;28;20044;-55
2021/12/28 04:26:32;;;;;;;20.65;9.38;;;;;;;-5.89;65.03;100163.50;5092683;28;20033;-52
2021/12/28 04:28:58;;;;;;;20.65;8.98;;;;;;;-5.95;65.17;100156.47;5088664;28;20028;-51
2021/12/28 04:31:23;;;;;;;22.38;11.35;;;;;;;-5.96;65.65;100165.81;5092317;28;20133;-56
2021/12/28 04:33:49;;;;;;;21.98;10.02;;;;;;;-5.86;65.50;100164.50;5092766;28;20383;-52
2021/12/28 04:36:15;;;;;;;22.42;11.05;;;;;;;-5.78;65.51;100160.56;5092509;28;20036;-51
2021/12/28 04:38:43;;;;;;;20.48;9.18;;;;;;;-5.69;65.45;100157.50;5094239;28;20079;-51
2021/12/28 04:41:10;;;;;;;19.65;10.10;;;;;;;-5.60;65.28;100162.09;5081585;28;20082;-53
2021/12/28 04:43:36;;;;;;;20.75;9.35;;;;;;;-5.56;65.13;100166.53;5085634;28;20055;-52
2021/12/28 04:46:02;;;;;;;20.25;10.13;;;;;;;-5.50;64.94;100180.44;5095911;28;20467;-50
2021/12/28 04:48:27;;;;;;;21.50;10.23;;;;;;;-5.47;65.07;100177.97;5095777;28;20070;-52
2021/12/28 04:50:53;;;;;;;17.73;10.07;;;;;;;-5.42;64.91;100178.19;5096324;28;20031;-51
2021/12/28 04:53:19;;;;;;;21.98;9.98;;;;;;;-5.42;65.25;100175.63;5083812;28;20085;-53
2021/12/28 04:55:48;;;;;;;19.55;9.15;;;;;;;-5.40;65.21;100168.84;5088386;28;20028;-52
2021/12/28 04:58:14;;;;;;;21.48;9.30;;;;;;;-5.37;65.27;100170.69;5096378;28;20475;-52
2021/12/28 05:00:42;;;;;;;16.92;8.75;;;;;;;-5.34;65.30;100155.44;5095791;28;20039;-51
2021/12/28 05:03:08;;;;;;;18.05;8.50;;;;;;;-5.30;65.26;100153.03;5092644;28;20024;-50
2021/12/28 05:05:35;;;;;;;21.42;9.93;;;;;;;-5.25;65.18;100155.78;5095787;28;20051;-51
2021/12/28 05:08:04;;;;;;;16.70;8.48;;;;;;;-5.23;65.28;100151.56;5089984;28;20043;-51
2021/12/28 05:10:30;;;;;;;17.90;8.60;;;;;;;-5.18;65.08;100156.91;5080752;28;20028;-50
2021/12/28 05:12:55;;;;;;;20.83;10.27;;;;;;;-5.14;65.10;100148.50;5082323;28;20048;-52
2021/12/28 05:15:20;;;;;;;25.52;11.10;;;;;;;-5.09;64.97;100155.53;5077824;28;20098;-51
2021/12/28 05:17:46;;;;;;;30.27;13.25;;;;;;;-5.07;65.22;100150.47;5075672;28;20070;-51
2021/12/28 05:20:12;;;;;;;32.50;15.95;;;;;;;-5.10;65.27;100142.69;5090384;28;20376;-52
2021/12/28 05:22:38;;;;;;;33.22;15.75;;;;;;;-5.14;65.67;100140.81;5094772;28;20036;-51
2021/12/28 05:25:04;;;;;;;35.10;16.95;;;;;;;-5.10;65.60;100127.31;5095972;28;20089;-51
2021/12/28 05:27:30;;;;;;;28.52;14.57;;;;;;;-5.10;65.72;100124.75;5095852;28;20107;-51
2021/12/28 05:29:55;;;;;;;64.30;37.53;;;;;;;-5.13;65.57;100124.63;5086354;28;20024;-52
2021/12/28 05:32:21;;;;;;;44.72;26.52;;;;;;;-5.11;65.68;100125.53;5089339;28;20080;-50
2021/12/28 05:34:46;;;;;;;44.78;26.55;;;;;;;-5.06;65.73;100124.03;5081954;28;20043;-50
2021/12/28 05:37:12;;;;;;;33.03;16.60;;;;;;;-5.09;65.59;100123.91;5095499;28;20024;-52
2021/12/28 05:39:37;;;;;;;23.77;11.52;;;;;;;-5.09;66.10;100116.25;5094100;28;20048;-51
2021/12/28 05:42:03;;;;;;;18.48;9.07;;;;;;;-5.04;66.02;100109.59;5082976;28;20036;-52
2021/12/28 05:44:29;;;;;;;22.58;11.05;;;;;;;-4.99;66.12;100108.06;5095264;28;20036;-50
2021/12/28 05:46:55;;;;;;;21.45;10.73;;;;;;;-4.96;66.08;100103.03;5094899;28;20097;-52
2021/12/28 05:49:21;;;;;;;20.05;9.18;;;;;;;-4.90;66.04;100104.97;5094872;28;20040;-49
2021/12/28 05:51:46;;;;;;;26.58;12.63;;;;;;;-4.87;65.98;100108.50;5095145;28;20043;-53
2021/12/28 05:54:12;;;;;;;20.77;11.05;;;;;;;-4.81;66.08;100102.72;5094418;28;20036;-49
2021/12/28 05:56:37;;;;;;;19.23;10.05;;;;;;;-4.85;66.12;100099.19;5094020;28;20549;-51
2021/12/28 05:59:03;;;;;;;21.10;10.48;;;;;;;-4.76;66.26;100094.38;5094942;28;20024;-50
2021/12/28 06:01:29;;;;;;;23.48;11.57;;;;;;;-4.84;66.41;100098.34;5093343;28;20027;-50
2021/12/28 06:03:54;;;;;;;27.95;12.30;;;;;;;-4.80;66.61;100084.81;5092971;28;20476;-50
2021/12/28 06:06:20;;;;;;;25.50;11.73;;;;;;;-4.76;66.52;100078.97;5093368;28;20056;-51
2021/12/28 06:08:45;;;;;;;28.55;13.00;;;;;;;-4.74;66.73;100079.06;5090477;28;20037;-51
2021/12/28 06:11:13;;;;;;;24.90;12.05;;;;;;;-4.71;66.68;100080.03;5077956;28;20032;-53
2021/12/28 06:13:40;;;;;;;27.70;12.57;;;;;;;-4.63;66.72;100076.84;5080288;28;20089;-51
2021/12/28 06:16:07;;;;;;;25.83;11.02;;;;;;;-4.63;67.18;100081.97;5094677;28;20440;-53
2021/12/28 06:18:32;;;;;;;19.73;9.60;;;;;;;-4.61;66.95;100073.53;5085310;28;20039;-51
2021/12/28 06:20:57;;;;;;;24.85;10.77;;;;;;;-4.54;67.13;100074.63;5094493;28;20388;-51
2021/12/28 06:23:23;;;;;;;20.52;9.60;;;;;;;-4.54;67.28;100075.47;5086501;28;20088;-51
2021/12/28 06:25:48;;;;;;;23.55;11.05;;;;;;;-4.52;67.40;100071.25;5093084;28;20043;-54
2021/12/28 06:28:14;;;;;;;22.45;10.55;;;;;;;-4.49;67.60;100065.38;5083544;28;20038;-51
2021/12/28 06:30:39;;;;;;;25.70;13.25;;;;;;;-4.50;67.81;100064.50;5093415;28;20082;-51
2021/12/28 06:33:05;;;;;;;19.73;10.70;;;;;;;-4.49;68.17;100062.81;5094302;28;20086;-54
2021/12/28 06:35:31;;;;;;;17.95;11.00;;;;;;;-4.51;68.29;100056.75;5094524;28;20034;-51
2021/12/28 06:37:56;;;;;;;20.80;10.45;;;;;;;-4.49;69.02;100057.69;5094635;28;20060;-50
2021/12/28 06:40:22;;;;;;;23.98;11.35;;;;;;;-4.47;69.87;100053.47;5094557;28;20063;-50
2021/12/28 06:42:47;;;;;;;18.33;10.73;;;;;;;-4.46;70.34;100056.09;5091667;28;20445;-52
2021/12/28 06:45:13;;;;;;;20.35;11.18;;;;;;;-4.48;70.66;100047.47;5093245;28;20032;-52
2021/12/28 06:47:38;;;;;;;27.65;11.25;;;;;;;-4.49;70.99;100061.13;5094127;28;20063;-50
2021/12/28 06:50:05;;;;;;;24.13;11.80;;;;;;;-4.47;71.05;100053.47;5093157;28;20035;-53
2021/12/28 06:52:31;;;;;;;25.65;12.00;;;;;;;-4.38;70.49;100056.34;5082725;28;20040;-51
2021/12/28 06:54:56;;;;;;;23.38;11.82;;;;;;;-4.32;70.74;100059.09;5082081;28;20453;-53
2021/12/28 06:57:22;;;;;;;24.42;12.05;;;;;;;-4.29;70.49;100048.06;5085926;28;20100;-52
2021/12/28 06:59:48;;;;;;;20.48;11.48;;;;;;;-4.26;70.71;100059.31;5084495;28;20536;-53
2021/12/28 07:02:15;;;;;;;23.00;11.25;;;;;;;-4.24;70.28;100055.09;5078493;28;20050;-50
2021/12/28 07:04:42;;;;;;;23.13;11.60;;;;;;;-4.21;70.43;100055.19;5092282;28;20375;-55
2021/12/28 07:07:07;;;;;;;23.40;11.68;;;;;;;-4.10;70.15;100057.25;5090243;28;20039;-51
2021/12/28 07:09:34;;;;;;;23.38;12.38;;;;;;;-4.14;70.11;100058.84;5089865;28;20020;-55
2021/12/28 07:12:00;;;;;;;24.08;11.52;;;;;;;-4.09;70.15;100051.28;5083776;28;20044;-53
2021/12/28 07:14:25;;;;;;;20.58;11.18;;;;;;;-4.06;70.28;100056.53;5091695;28;20059;-52
2021/12/28 07:16:51;;;;;;;20.70;10.63;;;;;;;-4.01;70.01;100052.41;5082617;28;20036;-50
2021/12/28 07:19:16;;;;;;;23.02;12.43;;;;;;;-3.97;70.04;100054.22;5082994;28;20090;-53
2021/12/28 07:21:42;;;;;;;22.30;12.73;;;;;;;-3.94;69.93;100050.91;5079742;28;20046;-52
2021/12/28 07:24:09;;;;;;;30.50;15.30;;;;;;;-3.89;69.73;100044.22;5092166;28;20040;-51
2021/12/28 07:26:36;;;;;;;26.00;12.75;;;;;;;-3.93;70.05;100043.25;5086467;28;20033;-54
2021/12/28 07:29:03;;;;;;;35.05;15.43;;;;;;;-3.87;70.19;100048.56;5073115;28;20455;-50
2021/12/28 07:31:30;;;;;;;31.90;14.38;;;;;;;-3.82;69.87;100048.72;5079016;28;20056;-51
2021/12/28 07:33:56;;;;;;;25.45;13.52;;;;;;;-3.79;70.10;100057.38;5093722;28;20036;-51
2021/12/28 07:36:21;;;;;;;42.10;16.88;;;;;;;-3.76;70.08;100049.75;5075530;28;20036;-53
2021/12/28 07:38:47;;;;;;;28.55;13.07;;;;;;;-3.66;69.97;100055.19;5093627;28;20028;-51
2021/12/28 07:41:13;;;;;;;22.60;12.00;;;;;;;-3.64;69.76;100049.25;5093540;28;20036;-52
2021/12/28 07:43:38;;;;;;;26.55;13.23;;;;;;;-3.62;70.17;100039.06;5093332;28;20040;-51
2021/12/28 07:46:04;;;;;;;28.88;13.38;;;;;;;-3.54;69.88;100041.00;5093259;28;20114;-53
2021/12/28 07:48:29;;;;;;;28.27;13.88;;;;;;;-3.64;70.63;100036.41;5093352;28;20043;-51
2021/12/28 07:50:55;;;;;;;26.35;14.13;;;;;;;-3.51;69.84;100047.91;5093806;28;20384;-53
2021/12/28 07:53:20;;;;;;;31.20;14.10;;;;;;;-3.45;69.69;100045.53;5091852;28;20040;-53
2021/12/28 07:55:46;;;;;;;29.20;14.98;;;;;;;-3.41;69.59;100039.66;5092831;28;20422;-53
2021/12/28 07:58:11;;;;;;;33.33;16.05;;;;;;;-3.40;69.39;100025.97;5089302;28;20036;-52
2021/12/28 08:00:37;;;;;;;26.20;13.27;;;;;;;-3.33;69.55;100019.34;5091327;28;20407;-50
2021/12/28 08:03:04;;;;;;;28.88;14.10;;;;;;;-3.37;69.57;100015.81;5090663;28;20051;-50
2021/12/28 08:05:31;;;;;;;26.85;13.90;;;;;;;-3.35;69.51;100014.16;5073043;28;20495;-53
2021/12/28 08:07:57;;;;;;;26.77;13.85;;;;;;;-3.30;69.55;100004.88;5072941;28;20468;-51
2021/12/28 08:10:22;;;;;;;30.13;15.05;;;;;;;-3.26;69.25;99988.72;5072907;28;20043;-51
2021/12/28 08:12:51;;;;;;;30.52;14.40;;;;;;;-3.14;68.99;99995.03;5072981;28;20036;-51
2021/12/28 08:15:16;;;;;;;29.08;14.90;;;;;;;-3.04;68.80;99994.44;5076393;28;20063;-51
2021/12/28 08:17:42;;;;;;;27.98;14.85;;;;;;;-3.07;68.75;99989.19;5076764;28;20499;-52
2021/12/28 08:20:10;;;;;;;27.63;14.85;;;;;;;-2.97;68.36;99983.47;5076804;28;20112;-53
2021/12/28 08:22:36;;;;;;;34.35;16.42;;;;;;;-2.95;68.38;99986.97;5076982;28;20162;-54
2021/12/28 08:25:04;;;;;;;27.27;13.52;;;;;;;-2.88;68.17;99993.13;5076691;28;20083;-52
2021/12/28 08:27:30;;;;;;;31.25;16.67;;;;;;;-2.89;68.12;99988.81;5076431;28;20064;-53
2021/12/28 08:29:56;;;;;;;28.15;15.43;;;;;;;-2.86;68.10;99994.91;5076019;28;20477;-52
2021/12/28 08:32:23;;;;;;;28.92;14.98;;;;;;;-2.81;68.20;100002.75;5087337;28;20056;-53
2021/12/28 08:34:49;;;;;;;31.02;15.57;;;;;;;-2.79;67.99;99995.97;5081861;28;20036;-53
2021/12/28 08:37:15;;;;;;;27.63;14.30;;;;;;;-2.76;67.94;99990.88;5079430;28;20025;-50
2021/12/28 08:39:41;;;;;;;27.27;14.43;;;;;;;-2.68;67.84;99991.06;5077378;28;20078;-54
2021/12/28 08:42:06;;;;;;;30.63;15.57;;;;;;;-2.66;67.93;99984.28;5091291;28;20044;-52
2021/12/28 08:44:32;;;;;;;29.10;14.77;;;;;;;-2.66;67.82;99982.56;5091707;28;20386;-50
2021/12/28 08:46:58;;;;;;;29.05;15.25;;;;;;;-2.68;67.70;99983.34;5093446;28;20033;-50
2021/12/28 08:49:26;;;;;;;28.70;15.30;;;;;;;-2.65;67.70;99970.59;5086733;28;20483;-51
2021/12/28 08:51:52;;;;;;;28.77;15.50;;;;;;;-2.67;68.08;99980.84;5076102;28;20074;-51
2021/12/28 08:54:17;;;;;;;27.92;15.05;;;;;;;-2.64;67.63;99970.59;5077060;28;20032;-54
2021/12/28 08:56:42;;;;;;;29.65;15.27;;;;;;;-2.68;67.98;99967.94;5083576;28;20048;-53
2021/12/28 08:59:08;;;;;;;33.92;17.33;;;;;;;-2.63;68.00;99961.19;5095974;28;20046;-49
2021/12/28 09:01:33;;;;;;;30.30;16.00;;;;;;;-2.63;67.99;99962.09;5086783;28;20052;-52
2021/12/28 09:03:59;;;;;;;31.02;15.95;;;;;;;-2.56;67.66;99955.38;5075758;28;20035;-54
2021/12/28 09:06:24;;;;;;;30.10;16.65;;;;;;;-2.55;67.87;99946.84;5075960;28;20063;-55
2021/12/28 09:08:50;;;;;;;28.02;14.80;;;;;;;-2.47;67.71;99947.88;5076031;28;20106;-55
2021/12/28 09:11:15;;;;;;;38.03;18.98;;;;;;;-2.41;67.41;99942.00;5076139;28;20029;-54
2021/12/28 09:13:41;;;;;;;29.13;16.30;;;;;;;-2.36;67.38;99946.41;5085553;28;20033;-54
2021/12/28 09:16:06;;;;;;;29.98;15.85;;;;;;;-2.39;67.76;99940.34;5075416;28;20254;-52
2021/12/28 09:18:32;;;;;;;30.65;15.65;;;;;;;-2.36;67.56;99930.97;5079268;28;20032;-53
2021/12/28 09:20:58;;;;;;;28.50;14.88;;;;;;;-2.33;67.40;99940.47;5095706;28;20032;-53
2021/12/28 09:23:24;;;;;;;25.80;14.13;;;;;;;-2.32;67.51;99937.94;5095602;28;20059;-54
2021/12/28 09:25:49;;;;;;;29.27;15.23;;;;;;;-2.27;67.15;99944.06;5088299;28;20040;-54
2021/12/28 09:28:14;;;;;;;28.90;14.93;;;;;;;-2.21;66.62;99942.47;5075479;28;20025;-50
2021/12/28 09:30:41;;;;;;;28.00;15.07;;;;;;;-2.11;66.79;99942.72;5084255;28;20036;-55
2021/12/28 09:33:07;;;;;;;28.15;14.48;;;;;;;-1.95;66.50;99949.06;5089721;28;20032;-54
2021/12/28 09:35:34;;;;;;;32.15;17.33;;;;;;;-1.94;66.04;99940.50;5085248;28;20044;-53
2021/12/28 09:37:59;;;;;;;27.38;14.88;;;;;;;-1.83;65.89;99944.19;5088069;28;20089;-52
2021/12/28 09:40:25;;;;;;;25.63;14.77;;;;;;;-1.77;65.64;99928.84;5091197;28;20040;-52
2021/12/28 09:42:50;;;;;;;28.90;15.45;;;;;;;-1.83;65.71;99927.88;5095197;28;20368;-55
2021/12/28 09:45:16;;;;;;;29.52;17.10;;;;;;;-1.76;65.47;99938.28;5094663;28;20084;-52
2021/12/28 09:47:43;;;;;;;29.33;15.95;;;;;;;-1.83;65.65;99926.16;5092616;28;20043;-53
2021/12/28 09:50:11;;;;;;;32.20;16.75;;;;;;;-1.76;65.20;99928.00;5094717;28;20081;-54
2021/12/28 09:52:39;;;;;;;27.95;16.67;;;;;;;-1.69;64.89;99928.13;5091309;28;20036;-54
2021/12/28 09:55:05;;;;;;;27.33;15.50;;;;;;;-1.63;64.76;99915.41;5094940;28;20039;-53
2021/12/28 09:57:31;;;;;;;28.05;16.25;;;;;;;-1.47;64.65;99917.44;5090165;28;20048;-55
2021/12/28 09:59:57;;;;;;;28.20;16.00;;;;;;;-1.40;64.40;99910.66;5074474;28;20037;-54
2021/12/28 10:02:23;;;;;;;26.75;15.15;;;;;;;-1.41;63.98;99916.66;5078499;28;20060;-54
2021/12/28 10:05:04;;;;;;;33.25;17.80;;;;;;;-1.28;63.75;99900.56;5093790;28;20028;-53
2021/12/28 10:07:33;;;;;;;32.03;17.52;;;;;;;-1.18;63.73;99888.75;5094823;28;20035;-52
2021/12/28 10:09:59;;;;;;;31.90;17.70;;;;;;;-1.10;63.37;99897.47;5078643;28;20064;-53
2021/12/28 10:12:29;;;;;;;31.90;19.17;;;;;;;-1.00;63.38;99896.78;5074271;28;20181;-55
2021/12/28 10:14:57;;;;;;;29.25;15.90;;;;;;;-1.09;63.14;99886.31;5080040;28;20028;-54
2021/12/28 10:17:25;;;;;;;29.17;16.73;;;;;;;-1.07;63.15;99884.66;5074823;28;20032;-55
2021/12/28 10:19:51;;;;;;;29.33;17.30;;;;;;;-1.10;63.36;99882.00;5074077;28;20486;-53
2021/12/28 10:22:38;;;;;;;31.63;18.35;;;;;;;-1.09;62.57;99876.00;5074150;28;20111;-54
2021/12/28 10:25:14;;;;;;;28.75;17.17;;;;;;;-1.03;63.38;99868.38;5074496;28;20040;-51
2021/12/28 10:27:48;;;;;;;29.83;16.70;;;;;;;-1.11;62.88;99854.50;5072520;28;20029;-55
2021/12/28 10:30:22;;;;;;;29.60;16.58;;;;;;;-1.12;63.07;99863.06;5073723;28;20063;-54
2021/12/28 10:32:50;;;;;;;28.23;17.00;;;;;;;-1.07;63.06;99862.31;5074198;28;20117;-55
2021/12/28 10:35:19;;;;;;;29.58;17.13;;;;;;;-1.18;63.33;99857.81;5073605;28;20032;-55
2021/12/28 10:37:51;;;;;;;26.45;16.23;;;;;;;-1.07;63.44;99845.97;5073267;28;20484;-53
2021/12/28 10:40:27;;;;;;;30.70;17.23;;;;;;;-0.98;63.10;99848.69;5073853;28;20032;-55
2021/12/28 10:43:04;;;;;;;27.55;15.90;;;;;;;-0.90;63.14;99846.22;5073813;28;20383;-55
2021/12/28 10:45:40;;;;;;;36.58;19.02;;;;;;;-0.86;62.66;99837.69;5074048;28;20032;-56
2021/12/28 10:48:18;;;;;;;41.97;21.40;;;;;;;-0.86;62.65;99828.25;5074025;28;20036;-55
2021/12/28 10:50:55;;;;;;;38.85;21.25;;;;;;;-0.77;62.54;99830.97;5074051;28;20021;-54
2021/12/28 10:53:25;;;;;;;39.83;20.02;;;;;;;-0.61;62.48;99826.03;5073661;28;20060;-55
2021/12/28 10:55:57;;;;;;;41.75;21.42;;;;;;;-0.59;62.05;99824.34;5073633;28;20085;-53
2021/12/28 10:58:44;;;;;;;35.38;18.38;;;;;;;-0.57;62.03;99822.66;5073458;28;20024;-52
2021/12/28 11:01:25;;;;;;;39.22;19.33;;;;;;;-0.55;61.86;99818.41;5073691;28;20024;-52
2021/12/28 11:03:59;;;;;;;36.42;18.55;;;;;;;-0.50;61.90;99819.31;5073774;28;20048;-52
2021/12/28 11:06:30;;;;;;;28.67;16.35;;;;;;;-0.47;62.11;99826.25;5073802;28;20468;-54
2021/12/28 11:09:03;;;;;;;35.10;18.92;;;;;;;-0.45;61.74;99829.69;5073429;28;20038;-50
2021/12/28 11:11:29;;;;;;;32.10;17.63;;;;;;;-0.42;61.97;99822.88;5073307;28;20040;-53
2021/12/28 11:13:59;;;;;;;33.35;17.67;;;;;;;-0.47;61.85;99819.38;5072249;28;20072;-53